Time;durP1;ratioP1;P1;durP2;ratioP2;P2;SDS_P1;SDS_P2;PMS_P1;PMS_P2;Temp;Humidity;BMP_temperature;BMP_pressure;BME280_temperature;BME280_humidity;BME280_pressure;Samples;Min_cycle;Max_cycle;Signal;HPM_P1;HPM_P2
2022/07/08 04:01:26;;;;;;;26.57;5.70;;;10.90;96.30;;;;;;5589773;23;20501;-73
2022/07/08 04:03:51;;;;;;;19.23;5.00;;;10.90;96.30;;;;;;5016033;28;20435;-74
2022/07/08 04:06:17;;;;;;;17.27;5.27;;;10.80;96.30;;;;;;5007493;28;20640;-73
2022/07/08 04:08:42;;;;;;;10.13;4.90;;;10.80;96.30;;;;;;5014088;28;20235;-73
2022/07/08 04:11:08;;;;;;;23.70;5.40;;;10.80;96.30;;;;;;5043976;28;20196;-74
2022/07/08 04:13:34;;;;;;;23.73;5.57;;;10.80;96.30;;;;;;5003064;28;20184;-74
2022/07/08 04:16:00;;;;;;;9.90;5.53;;;10.80;96.30;;;;;;4997698;28;20176;-75
2022/07/08 04:18:26;;;;;;;16.77;5.80;;;10.80;96.30;;;;;;4988728;28;20236;-74
2022/07/08 04:20:51;;;;;;;22.23;6.20;;;10.80;96.30;;;;;;4977417;28;20476;-74
2022/07/08 04:23:17;;;;;;;20.60;5.80;;;10.80;96.30;;;;;;4995560;28;20299;-73
2022/07/08 04:25:42;;;;;;;23.90;7.30;;;10.90;96.30;;;;;;5014530;28;20172;-73
2022/07/08 04:28:08;;;;;;;22.80;7.33;;;10.90;96.30;;;;;;5013602;28;20173;-73
2022/07/08 04:30:34;;;;;;;17.90;7.03;;;10.90;96.30;;;;;;5014330;28;20652;-73
2022/07/08 04:32:59;;;;;;;20.27;7.17;;;10.90;96.30;;;;;;5014060;28;20202;-73
2022/07/08 04:35:25;;;;;;;28.90;7.43;;;10.90;96.30;;;;;;4988808;28;20267;-73
2022/07/08 04:37:50;;;;;;;18.20;7.67;;;10.90;96.30;;;;;;4993998;28;20209;-75
2022/07/08 04:40:16;;;;;;;26.27;8.23;;;10.90;96.30;;;;;;5006501;28;20205;-75
2022/07/08 04:42:42;;;;;;;29.83;9.37;;;10.90;96.30;;;;;;5011612;28;20629;-73
2022/07/08 05:04:48;;;;;;;18.77;7.57;;;11.00;96.30;;;;;;5383442;23;20867;-76
2022/07/08 05:07:13;;;;;;;25.93;8.17;;;11.00;96.30;;;;;;4993255;28;20405;-77
2022/07/08 05:09:39;;;;;;;24.67;8.30;;;11.10;96.30;;;;;;4993525;28;20178;-74
2022/07/08 05:12:05;;;;;;;22.13;8.50;;;11.00;96.30;;;;;;5008482;28;20529;-75
2022/07/08 05:14:30;;;;;;;28.83;8.60;;;11.00;96.30;;;;;;4994667;28;20177;-78
2022/07/08 05:16:56;;;;;;;30.07;7.90;;;11.10;96.30;;;;;;5012462;28;20502;-78
2022/07/08 05:19:21;;;;;;;22.10;7.50;;;11.10;96.30;;;;;;4994514;28;20203;-78
2022/07/08 05:21:46;;;;;;;18.57;7.33;;;11.20;96.30;;;;;;5012087;28;20536;-79
2022/07/08 05:24:12;;;;;;;17.17;7.73;;;11.20;96.30;;;;;;5012140;28;20227;-79
2022/07/08 05:26:37;;;;;;;14.83;6.80;;;11.20;96.30;;;;;;5012213;28;20251;-79
2022/07/08 05:29:03;;;;;;;17.37;8.40;;;11.20;96.30;;;;;;5012040;28;20644;-79
2022/07/08 05:31:28;;;;;;;14.60;6.67;;;11.30;96.30;;;;;;5012310;28;20217;-79
2022/07/08 05:33:54;;;;;;;23.83;7.20;;;11.30;96.30;;;;;;5012439;28;20177;-79
2022/07/08 05:36:20;;;;;;;22.93;7.80;;;11.30;96.30;;;;;;4995028;28;20175;-75
2022/07/08 05:38:45;;;;;;;22.80;7.00;;;11.40;96.30;;;;;;4995143;28;20669;-75
2022/07/08 05:41:11;;;;;;;15.07;6.20;;;11.40;96.30;;;;;;5013117;28;20196;-77
2022/07/08 05:43:36;;;;;;;24.13;8.50;;;11.40;96.30;;;;;;5013334;28;20671;-76
2022/07/08 05:46:02;;;;;;;12.63;5.90;;;11.40;96.30;;;;;;5013204;28;20648;-75
2022/07/08 05:48:28;;;;;;;21.00;7.10;;;11.40;96.30;;;;;;4994546;28;20219;-79
2022/07/08 05:50:54;;;;;;;9.47;6.30;;;11.30;96.30;;;;;;4994646;28;20212;-79
2022/07/08 05:53:20;;;;;;;15.50;5.93;;;11.30;96.30;;;;;;4998598;28;20429;-79
2022/07/08 05:55:46;;;;;;;19.90;6.40;;;11.30;96.30;;;;;;4977190;28;20188;-79
2022/07/08 05:58:12;;;;;;;12.73;6.37;;;11.30;96.30;;;;;;4978676;28;20456;-79
2022/07/08 06:00:38;;;;;;;17.50;7.17;;;11.30;96.30;;;;;;4978932;28;20232;-79
2022/07/08 06:03:05;;;;;;;11.97;5.43;;;11.30;96.30;;;;;;4996707;28;20177;-79
2022/07/08 06:05:34;;;;;;;14.87;8.03;;;11.20;96.30;;;;;;4978919;28;20224;-79
2022/07/08 06:07:59;;;;;;;13.33;5.90;;;11.20;96.30;;;;;;4978766;28;20471;-79
2022/07/08 06:10:28;;;;;;;15.90;6.30;;;11.20;96.30;;;;;;4980457;28;20428;-79
2022/07/08 06:12:54;;;;;;;16.87;6.77;;;11.20;96.30;;;;;;4982283;28;20185;-79
2022/07/08 06:15:20;;;;;;;15.03;7.00;;;11.20;96.30;;;;;;4981650;28;20428;-79
2022/07/08 06:17:46;;;;;;;13.80;7.40;;;11.20;96.30;;;;;;4978388;28;20212;-79
2022/07/08 06:20:14;;;;;;;11.20;7.70;;;11.30;96.30;;;;;;4996427;28;20982;-79
2022/07/08 06:22:40;;;;;;;11.90;6.43;;;11.30;96.30;;;;;;4996552;28;20193;-79
2022/07/08 06:25:05;;;;;;;13.63;6.17;;;11.30;96.30;;;;;;4979546;28;20646;-79
2022/07/08 06:27:31;;;;;;;22.73;6.13;;;11.30;96.30;;;;;;4979266;28;20555;-79
2022/07/08 06:29:56;;;;;;;11.10;6.10;;;11.30;96.30;;;;;;4996817;28;20182;-79
2022/07/08 06:32:22;;;;;;;12.43;5.60;;;11.30;96.30;;;;;;4979088;28;20209;-79
2022/07/08 06:34:47;;;;;;;12.50;6.40;;;11.30;96.30;;;;;;4996760;28;20700;-79
2022/07/08 06:37:13;;;;;;;11.93;5.73;;;11.40;96.30;;;;;;4997099;28;20582;-79
2022/07/08 06:39:38;;;;;;;14.70;5.70;;;11.30;96.30;;;;;;4983125;28;20573;-79
2022/07/08 06:42:04;;;;;;;9.67;5.53;;;11.30;96.30;;;;;;4997443;28;20229;-79
2022/07/08 06:44:30;;;;;;;7.53;5.30;;;11.40;96.30;;;;;;4996397;28;20652;-79
2022/07/08 06:46:55;;;;;;;9.23;5.20;;;11.40;96.30;;;;;;4996277;28;20224;-79
2022/07/08 06:49:21;;;;;;;10.17;4.60;;;11.50;96.30;;;;;;4997461;28;20231;-80
2022/07/08 06:51:47;;;;;;;9.63;4.33;;;11.50;96.30;;;;;;4997469;28;20673;-80
2022/07/08 06:56:56;;;;;;;7.20;4.37;;;11.50;96.30;;;;;;4997357;28;20184;-80
2022/07/08 06:59:22;;;;;;;9.20;4.20;;;11.40;96.30;;;;;;4996856;28;20464;-79
2022/07/08 07:01:47;;;;;;;5.90;4.30;;;11.50;96.30;;;;;;4978817;28;20195;-80
2022/07/08 07:04:13;;;;;;;12.93;4.60;;;11.60;96.30;;;;;;4965435;28;20216;-77
2022/07/08 07:06:38;;;;;;;9.50;4.63;;;11.60;96.30;;;;;;4973090;28;20186;-79
2022/07/08 07:09:04;;;;;;;10.83;4.60;;;11.60;96.30;;;;;;5002338;28;20193;-79
2022/07/08 07:11:29;;;;;;;9.87;4.97;;;11.70;96.30;;;;;;5008012;28;20204;-80
2022/07/08 07:13:55;;;;;;;3.43;3.13;;;11.70;96.30;;;;;;4993431;28;20244;-79
2022/07/08 07:16:21;;;;;;;12.70;3.73;;;11.70;96.30;;;;;;4977365;28;20303;-77
2022/07/08 07:18:46;;;;;;;11.40;3.50;;;11.70;96.30;;;;;;5003172;28;21017;-78
2022/07/08 07:21:12;;;;;;;15.03;4.40;;;11.80;96.30;;;;;;4997219;28;20567;-79
2022/07/08 07:23:38;;;;;;;12.03;3.53;;;11.80;96.30;;;;;;4981011;28;20228;-80
2022/07/08 07:26:03;;;;;;;12.00;4.30;;;11.70;96.30;;;;;;5001496;28;20181;-79
2022/07/08 07:28:29;;;;;;;18.20;4.07;;;11.70;96.30;;;;;;4993969;28;20665;-79
2022/07/08 07:30:55;;;;;;;12.63;4.33;;;11.60;96.30;;;;;;4974386;28;20571;-79
2022/07/08 07:33:20;;;;;;;12.43;4.40;;;11.60;96.30;;;;;;4996615;28;20177;-78
2022/07/08 07:35:45;;;;;;;18.37;5.73;;;11.70;96.30;;;;;;4978383;28;20259;-79
2022/07/08 07:38:11;;;;;;;16.17;5.13;;;11.80;96.30;;;;;;4998222;28;20216;-79
2022/07/08 07:40:37;;;;;;;19.23;4.90;;;11.80;96.30;;;;;;4977893;28;20216;-78
2022/07/08 07:43:02;;;;;;;19.13;7.23;;;11.80;96.30;;;;;;5002222;28;20244;-78
2022/07/08 07:45:28;;;;;;;22.20;6.93;;;11.80;96.30;;;;;;4993877;28;20258;-78
2022/07/08 07:47:53;;;;;;;12.93;6.63;;;11.90;96.30;;;;;;5000353;28;20641;-78
2022/07/08 07:50:19;;;;;;;16.50;6.90;;;11.90;96.30;;;;;;4999466;28;20265;-78
2022/07/08 07:52:44;;;;;;;16.23;7.33;;;12.00;96.30;;;;;;4994041;28;20182;-78
2022/07/08 07:55:10;;;;;;;19.53;7.70;;;11.90;96.30;;;;;;4994264;28;20232;-78
2022/07/08 07:57:36;;;;;;;18.57;8.00;;;11.90;96.30;;;;;;4993722;28;20295;-77
2022/07/08 08:00:09;;;;;;;13.70;8.20;;;11.90;96.30;;;;;;4994562;28;20166;-77
2022/07/08 08:02:34;;;;;;;21.27;9.03;;;11.90;96.30;;;;;;4994621;28;20448;-77
2022/07/08 08:05:00;;;;;;;19.87;8.57;;;12.00;96.30;;;;;;4983900;28;20466;-77
2022/07/08 08:07:25;;;;;;;14.30;8.90;;;11.90;96.30;;;;;;4986342;28;20185;-77
2022/07/08 08:09:51;;;;;;;19.87;9.97;;;11.90;96.30;;;;;;4989889;28;20226;-77
2022/07/08 08:12:16;;;;;;;19.30;10.10;;;11.90;96.30;;;;;;4975969;28;20190;-77
2022/07/08 08:14:42;;;;;;;18.17;10.10;;;11.90;96.30;;;;;;4992307;28;20189;-77
2022/07/08 08:17:07;;;;;;;25.77;10.17;;;11.90;96.30;;;;;;4974381;28;20750;-77
2022/07/08 08:19:33;;;;;;;27.80;10.73;;;11.90;96.30;;;;;;4973758;28;20241;-77
2022/07/08 08:21:58;;;;;;;24.30;9.83;;;11.90;96.30;;;;;;4974090;28;20208;-77
2022/07/08 08:24:24;;;;;;;16.87;9.73;;;11.90;96.30;;;;;;4974160;28;20171;-77
2022/07/08 08:26:49;;;;;;;21.30;10.40;;;11.90;96.30;;;;;;4964932;28;20596;-76
2022/07/08 08:29:15;;;;;;;22.37;10.17;;;12.00;96.30;;;;;;4975190;28;20192;-77
2022/07/08 08:31:40;;;;;;;14.13;9.40;;;11.90;96.30;;;;;;4993452;28;20259;-77
2022/07/08 08:34:08;;;;;;;17.17;9.00;;;12.00;96.30;;;;;;4993294;28;20189;-76
2022/07/08 08:36:33;;;;;;;9.97;7.73;;;11.90;96.30;;;;;;4993314;28;20201;-76
2022/07/08 08:38:58;;;;;;;16.53;8.53;;;12.00;96.30;;;;;;4992976;28;20506;-75
2022/07/08 08:41:26;;;;;;;17.97;7.77;;;12.00;96.30;;;;;;4993996;28;20691;-78
2022/07/08 08:43:51;;;;;;;20.13;8.27;;;12.00;96.30;;;;;;5012700;28;20177;-76
2022/07/08 08:46:23;;;;;;;20.10;8.07;;;12.10;96.30;;;;;;4986034;28;20428;-77
2022/07/08 08:48:51;;;;;;;13.63;8.00;;;12.10;96.30;;;;;;4979569;28;20272;-77
2022/07/08 08:51:20;;;;;;;14.23;7.23;;;12.10;96.30;;;;;;4982073;28;20505;-77
2022/07/08 08:53:47;;;;;;;16.20;8.80;;;12.20;96.30;;;;;;4989523;28;20417;-76
2022/07/08 08:56:14;;;;;;;14.13;7.60;;;12.20;96.30;;;;;;4993087;28;20786;-77
2022/07/08 08:58:46;;;;;;;21.07;9.00;;;12.20;96.30;;;;;;4975188;28;20484;-75
2022/07/08 09:01:12;;;;;;;14.93;7.23;;;12.20;96.30;;;;;;4991745;28;20539;-74
2022/07/08 09:03:37;;;;;;;13.23;6.93;;;12.10;96.30;;;;;;4992951;28;21108;-75
2022/07/08 09:06:04;;;;;;;11.70;6.57;;;12.10;96.30;;;;;;4975890;28;20173;-75
2022/07/08 09:08:30;;;;;;;10.40;6.70;;;12.10;96.30;;;;;;4992495;28;20260;-75
2022/07/08 09:10:56;;;;;;;17.43;8.57;;;12.20;96.30;;;;;;5009750;28;20567;-78
2022/07/08 09:13:25;;;;;;;17.87;8.20;;;12.20;96.30;;;;;;5012483;28;20499;-78
2022/07/08 09:15:57;;;;;;;15.00;7.30;;;12.30;96.30;;;;;;5001731;28;20191;-78
2022/07/08 09:18:28;;;;;;;16.17;7.80;;;12.40;96.30;;;;;;4992119;28;20498;-78
2022/07/08 09:20:55;;;;;;;29.30;8.00;;;12.50;96.30;;;;;;4992568;28;20433;-78
2022/07/08 09:23:27;;;;;;;19.53;7.53;;;12.50;96.30;;;;;;4992701;28;20848;-78
2022/07/08 09:25:57;;;;;;;18.40;7.27;;;12.50;96.30;;;;;;4992751;28;20900;-78
2022/07/08 09:28:31;;;;;;;18.77;7.20;;;12.50;96.30;;;;;;4992462;28;20420;-78
2022/07/08 09:30:57;;;;;;;13.37;7.47;;;12.60;96.30;;;;;;4974698;28;20445;-78
2022/07/08 09:33:25;;;;;;;16.40;7.03;;;12.70;96.30;;;;;;4992363;28;20452;-78
2022/07/08 09:35:50;;;;;;;14.00;7.20;;;12.80;96.30;;;;;;4992654;28;20531;-77
2022/07/08 09:38:19;;;;;;;20.17;7.27;;;12.80;96.30;;;;;;4974940;28;20464;-78
2022/07/08 09:40:59;;;;;;;15.43;6.10;;;12.80;96.30;;;;;;4977182;28;20225;-78
2022/07/08 09:43:25;;;;;;;15.70;7.00;;;12.90;96.30;;;;;;4992588;28;20405;-78
2022/07/08 09:45:51;;;;;;;11.60;6.80;;;13.00;96.30;;;;;;4988546;28;20906;-77
2022/07/08 09:48:17;;;;;;;12.47;6.70;;;13.00;96.30;;;;;;4988096;28;20924;-78
2022/07/08 09:50:48;;;;;;;14.60;6.50;;;13.10;96.30;;;;;;4983962;28;20525;-77
2022/07/08 09:53:25;;;;;;;14.07;6.53;;;13.10;96.30;;;;;;4967950;28;20461;-78
2022/07/08 09:55:53;;;;;;;23.70;6.60;;;13.30;96.30;;;;;;4991333;28;20423;-78
2022/07/08 09:58:23;;;;;;;12.47;5.87;;;13.40;96.30;;;;;;4988983;28;20463;-78
2022/07/08 10:00:52;;;;;;;15.70;6.00;;;13.50;96.30;;;;;;4974682;28;20441;-77
2022/07/08 10:03:18;;;;;;;22.23;6.20;;;13.50;96.30;;;;;;4992729;28;20482;-78
2022/07/08 10:05:45;;;;;;;19.33;8.20;;;13.60;96.30;;;;;;4970903;28;20448;-77
2022/07/08 10:08:11;;;;;;;21.97;5.37;;;13.70;96.30;;;;;;4985986;28;20424;-78
2022/07/08 10:10:38;;;;;;;23.77;5.73;;;13.70;96.30;;;;;;4984233;28;20790;-78
2022/07/08 10:13:04;;;;;;;9.07;5.27;;;13.80;96.30;;;;;;4991373;28;21090;-78
2022/07/08 10:15:36;;;;;;;14.13;5.70;;;13.80;96.30;;;;;;4992095;28;20464;-78
2022/07/08 10:18:23;;;;;;;13.43;6.00;;;13.80;96.30;;;;;;4992045;28;20453;-78
2022/07/08 10:20:52;;;;;;;13.93;7.30;;;13.60;96.30;;;;;;4992179;28;20829;-78
2022/07/08 10:23:36;;;;;;;21.53;9.20;;;13.20;96.30;;;;;;4988059;28;20474;-78
2022/07/08 10:26:02;;;;;;;11.67;7.43;;;13.00;96.30;;;;;;4987431;28;20988;-76
2022/07/08 10:28:35;;;;;;;15.80;8.10;;;13.00;96.30;;;;;;4991909;28;20508;-74
2022/07/08 10:31:00;;;;;;;19.60;9.57;;;13.00;96.30;;;;;;4992052;28;20445;-74
2022/07/08 10:33:28;;;;;;;17.43;9.30;;;13.10;96.30;;;;;;4992030;28;20774;-74
2022/07/08 10:36:07;;;;;;;23.20;8.33;;;13.40;96.30;;;;;;4984474;28;20674;-74
2022/07/08 10:38:40;;;;;;;14.40;7.30;;;13.60;96.30;;;;;;4988383;28;20483;-76
2022/07/08 10:41:08;;;;;;;11.97;6.77;;;13.70;96.30;;;;;;5007896;28;20435;-76
2022/07/08 10:43:34;;;;;;;22.17;7.07;;;13.80;96.30;;;;;;5017737;28;20408;-77
2022/07/08 10:46:11;;;;;;;17.57;7.80;;;13.80;96.30;;;;;;5004205;28;20420;-77
2022/07/08 10:48:39;;;;;;;15.60;7.03;;;13.70;96.30;;;;;;5004406;28;20436;-76
2022/07/08 10:53:53;;;;;;;13.03;6.60;;;13.40;96.30;;;;;;5263660;23;20886;-79
2022/07/08 10:56:48;;;;;;;16.70;7.23;;;13.40;96.30;;;;;;4978373;28;20507;-79
2022/07/08 10:59:19;;;;;;;13.93;6.13;;;13.50;96.30;;;;;;4977765;28;20468;-79
2022/07/08 11:01:56;;;;;;;16.00;6.77;;;13.60;96.30;;;;;;4995164;28;20441;-79
2022/07/08 11:04:33;;;;;;;16.50;6.80;;;13.70;96.30;;;;;;4994912;28;20776;-79
2022/07/08 11:07:20;;;;;;;15.77;5.97;;;13.70;96.30;;;;;;4981983;28;21046;-78
2022/07/08 11:09:49;;;;;;;19.37;6.53;;;13.70;96.30;;;;;;4979854;28;20438;-78
2022/07/08 11:12:21;;;;;;;15.30;6.40;;;13.60;96.30;;;;;;4968413;28;20451;-78
2022/07/08 11:14:49;;;;;;;13.93;6.57;;;13.70;96.30;;;;;;4981409;28;20935;-78
2022/07/08 11:17:20;;;;;;;15.33;5.50;;;13.80;96.30;;;;;;4977253;28;20463;-78
2022/07/08 11:19:47;;;;;;;13.47;5.70;;;13.80;96.30;;;;;;4977174;28;20429;-78
2022/07/08 11:22:13;;;;;;;10.73;5.07;;;13.90;96.30;;;;;;4994411;28;20445;-78
2022/07/08 11:24:40;;;;;;;12.57;4.70;;;14.00;96.30;;;;;;4994770;28;20425;-78
2022/07/08 11:27:07;;;;;;;12.97;4.60;;;14.00;96.30;;;;;;4977038;28;20508;-78
2022/07/08 11:29:33;;;;;;;15.63;4.90;;;14.10;96.30;;;;;;4994628;28;20417;-78
2022/07/08 11:32:00;;;;;;;16.03;4.33;;;14.30;96.30;;;;;;4994711;28;20494;-78
2022/07/08 11:34:26;;;;;;;13.50;4.43;;;14.40;96.30;;;;;;4977110;28;20519;-78
2022/07/08 11:36:55;;;;;;;9.63;3.97;;;14.40;96.30;;;;;;4995073;28;20470;-78
2022/07/08 11:39:21;;;;;;;9.80;3.67;;;14.30;96.30;;;;;;4976857;28;20607;-78
2022/07/08 11:41:46;;;;;;;9.40;4.07;;;14.20;96.30;;;;;;4994728;28;20512;-78
2022/07/08 11:44:12;;;;;;;10.03;3.93;;;14.00;96.30;;;;;;4994829;28;20664;-78
2022/07/08 11:46:52;;;;;;;10.30;3.80;;;14.00;96.30;;;;;;4977570;28;20313;-78
2022/07/08 11:49:18;;;;;;;14.20;4.53;;;13.90;96.30;;;;;;4974970;28;20528;-78
2022/07/08 11:52:04;;;;;;;7.30;2.80;;;13.80;96.30;;;;;;4974894;28;20437;-78
2022/07/08 11:54:30;;;;;;;12.53;3.13;;;13.60;96.30;;;;;;4974276;28;20664;-78
2022/07/08 11:57:00;;;;;;;13.90;4.33;;;13.70;96.30;;;;;;4974821;28;20963;-77
2022/07/08 11:59:27;;;;;;;13.97;4.07;;;13.80;96.30;;;;;;4973917;28;20293;-78
2022/07/08 12:01:56;;;;;;;11.13;4.47;;;14.20;96.30;;;;;;4974388;28;20449;-78
2022/07/08 12:04:22;;;;;;;19.60;4.23;;;14.50;96.30;;;;;;4974661;28;20912;-78
2022/07/08 12:06:50;;;;;;;16.03;3.83;;;14.80;96.30;;;;;;4974905;28;20409;-78
2022/07/08 12:09:20;;;;;;;8.93;3.43;;;14.90;96.30;;;;;;4979248;28;20431;-78
2022/07/08 12:11:53;;;;;;;10.23;2.70;;;14.70;96.30;;;;;;4993965;28;20485;-78
2022/07/08 12:14:20;;;;;;;17.83;3.27;;;14.60;96.30;;;;;;4989641;28;21873;-78
2022/07/08 12:16:50;;;;;;;6.43;2.80;;;14.40;96.30;;;;;;4961223;28;20433;-78
2022/07/08 12:19:29;;;;;;;9.37;2.87;;;14.30;96.30;;;;;;4978484;28;21015;-78
2022/07/08 12:21:56;;;;;;;12.27;3.60;;;14.30;96.30;;;;;;4978700;28;20444;-78
2022/07/08 12:24:36;;;;;;;5.43;2.43;;;14.10;96.30;;;;;;4962091;28;20530;-78
2022/07/08 12:27:05;;;;;;;9.47;2.77;;;14.00;96.30;;;;;;4985547;28;20794;-78
2022/07/08 12:29:33;;;;;;;12.83;3.60;;;13.90;96.30;;;;;;4993512;28;20782;-78
2022/07/08 12:31:59;;;;;;;9.53;3.10;;;14.00;96.30;;;;;;4989451;28;20444;-78
2022/07/08 12:34:25;;;;;;;15.23;3.03;;;14.00;96.30;;;;;;4976000;28;20428;-78
2022/07/08 12:36:52;;;;;;;8.07;2.40;;;14.20;96.30;;;;;;4990229;28;20202;-78
2022/07/08 12:39:20;;;;;;;13.10;3.37;;;14.40;96.30;;;;;;4974842;28;20476;-78
2022/07/08 12:42:00;;;;;;;8.33;3.17;;;14.50;96.30;;;;;;4993802;28;20433;-73
2022/07/08 12:44:30;;;;;;;8.13;3.10;;;14.70;96.30;;;;;;4992039;28;20427;-74
2022/07/08 12:46:56;;;;;;;15.00;3.10;;;15.10;96.30;;;;;;4976005;28;20429;-73
2022/07/08 12:49:23;;;;;;;14.03;3.30;;;15.20;96.30;;;;;;4964109;28;20422;-75
2022/07/08 12:51:49;;;;;;;5.60;2.30;;;15.10;96.30;;;;;;4987018;28;20460;-78
2022/07/08 12:54:16;;;;;;;18.43;3.10;;;15.10;96.30;;;;;;4989374;28;20436;-78
2022/07/08 12:56:42;;;;;;;8.77;2.70;;;15.60;96.30;;;;;;4973018;28;20940;-77
2022/07/08 12:59:07;;;;;;;8.83;2.93;;;16.80;96.30;;;;;;4990213;28;20461;-78
2022/07/08 13:01:33;;;;;;;8.87;2.70;;;17.80;96.30;;;;;;4992015;28;20197;-77
2022/07/08 13:03:58;;;;;;;12.07;3.03;;;18.70;96.30;;;;;;4990246;28;20649;-77
2022/07/08 13:06:23;;;;;;;9.23;2.77;;;19.00;96.30;;;;;;4981254;28;20300;-77
2022/07/08 13:08:49;;;;;;;7.53;2.17;;;18.00;96.30;;;;;;4983854;28;20177;-78
2022/07/08 13:11:14;;;;;;;10.87;2.53;;;17.80;96.30;;;;;;4983089;28;20269;-77
2022/07/08 13:13:40;;;;;;;11.20;2.90;;;18.60;96.30;;;;;;4980856;28;20182;-74
2022/07/08 13:16:06;;;;;;;10.60;2.60;;;18.40;96.30;;;;;;4974137;28;20182;-75
2022/07/08 13:18:31;;;;;;;14.90;2.57;;;17.90;96.30;;;;;;4986112;28;20198;-74
2022/07/08 13:20:57;;;;;;;9.10;1.80;;;17.80;96.30;;;;;;4972165;28;20197;-75
2022/07/08 13:23:22;;;;;;;8.50;2.40;;;18.10;96.30;;;;;;4975351;28;20180;-76
2022/07/08 13:25:51;;;;;;;13.10;2.50;;;18.80;96.30;;;;;;4992434;28;20209;-76
2022/07/08 13:28:16;;;;;;;11.97;2.30;;;19.60;96.30;;;;;;4992490;28;20260;-76
2022/07/08 13:30:42;;;;;;;5.57;2.10;;;19.20;96.30;;;;;;4992573;28;20536;-76
2022/07/08 13:33:07;;;;;;;14.03;2.33;;;18.90;96.30;;;;;;4992410;28;20236;-76
2022/07/08 13:35:33;;;;;;;12.53;2.47;;;19.20;96.30;;;;;;4992772;28;20178;-76
2022/07/08 13:37:58;;;;;;;13.40;2.70;;;18.70;96.30;;;;;;4992074;28;20276;-76
2022/07/08 13:40:24;;;;;;;7.13;2.33;;;19.10;96.30;;;;;;4992503;28;20209;-76
2022/07/08 13:42:49;;;;;;;13.23;2.53;;;18.50;96.30;;;;;;4992507;28;20634;-76
2022/07/08 13:45:15;;;;;;;10.67;2.17;;;17.90;96.30;;;;;;4992551;28;20173;-75
2022/07/08 13:47:40;;;;;;;12.90;2.20;;;17.70;96.30;;;;;;4992107;28;20173;-75
2022/07/08 13:50:06;;;;;;;7.37;2.00;;;18.20;96.30;;;;;;4992573;28;20204;-75
2022/07/08 13:52:32;;;;;;;7.83;2.20;;;18.10;96.30;;;;;;4992048;28;20205;-75
2022/07/08 13:54:57;;;;;;;8.43;2.23;;;18.00;96.30;;;;;;4992612;28;20710;-76
2022/07/08 13:57:23;;;;;;;8.07;2.27;;;18.20;96.30;;;;;;4990999;28;20181;-76
2022/07/08 13:59:48;;;;;;;10.40;2.13;;;18.50;96.30;;;;;;4975075;28;20681;-76
2022/07/08 14:02:15;;;;;;;7.50;1.80;;;18.60;96.30;;;;;;4975092;28;20197;-75
2022/07/08 14:04:41;;;;;;;4.57;1.53;;;19.00;96.30;;;;;;4992087;28;20177;-75
2022/07/08 14:07:06;;;;;;;10.43;2.13;;;18.90;96.30;;;;;;4985814;28;20424;-76
2022/07/08 14:09:32;;;;;;;4.70;1.50;;;18.50;96.30;;;;;;4984720;28;20181;-75
2022/07/08 14:11:57;;;;;;;9.77;1.73;;;18.10;96.30;;;;;;4992044;28;20272;-75
2022/07/08 14:14:24;;;;;;;13.00;2.33;;;18.50;96.30;;;;;;4991991;28;20186;-76
2022/07/08 14:16:49;;;;;;;7.37;1.60;;;19.10;96.30;;;;;;4994208;28;20174;-76
2022/07/08 14:19:15;;;;;;;8.50;1.90;;;19.40;96.30;;;;;;4995296;28;20486;-75
2022/07/08 14:21:40;;;;;;;8.90;1.87;;;19.00;96.30;;;;;;4996121;28;20194;-73
2022/07/08 14:24:06;;;;;;;9.60;1.60;;;19.60;96.30;;;;;;4995534;28;20216;-74
2022/07/08 14:26:32;;;;;;;9.40;2.20;;;19.30;96.30;;;;;;4995579;28;20641;-74
2022/07/08 14:28:57;;;;;;;9.93;2.40;;;18.90;96.30;;;;;;4984478;28;20239;-75
2022/07/08 14:31:23;;;;;;;9.70;1.90;;;18.70;96.30;;;;;;4994628;28;20332;-75
2022/07/08 14:33:48;;;;;;;8.00;1.50;;;19.00;96.30;;;;;;5008589;28;20208;-74
2022/07/08 14:36:14;;;;;;;9.43;2.50;;;19.90;96.30;;;;;;5005581;28;20243;-76
2022/07/08 14:38:39;;;;;;;5.33;1.70;;;19.80;96.30;;;;;;4997362;28;20212;-76
2022/07/08 14:41:05;;;;;;;7.20;1.77;;;19.50;96.30;;;;;;4999286;28;20452;-75
2022/07/08 14:43:31;;;;;;;6.53;1.67;;;19.00;96.30;;;;;;4994989;28;20648;-74
2022/07/08 14:45:57;;;;;;;9.73;1.57;;;18.60;96.30;;;;;;4995695;28;20170;-74
2022/07/08 14:48:22;;;;;;;4.37;1.67;;;18.70;96.30;;;;;;4994490;28;20178;-75
2022/07/08 14:50:48;;;;;;;12.37;2.77;;;19.60;96.30;;;;;;4995487;28;20220;-75
2022/07/08 14:53:13;;;;;;;6.40;1.80;;;19.90;96.30;;;;;;4994378;28;20193;-75
2022/07/08 14:55:39;;;;;;;4.13;1.60;;;20.00;96.30;;;;;;4994944;28;20615;-75
2022/07/08 14:58:05;;;;;;;6.20;2.23;;;20.10;96.30;;;;;;4977594;28;20201;-75
2022/07/08 15:00:30;;;;;;;9.77;2.27;;;19.10;96.30;;;;;;4995302;28;20173;-76
2022/07/08 15:02:56;;;;;;;4.70;1.80;;;18.80;96.30;;;;;;4977811;28;20264;-75
2022/07/08 15:05:21;;;;;;;5.93;2.03;;;18.30;96.30;;;;;;4995130;28;20205;-74
2022/07/08 15:07:46;;;;;;;6.73;1.97;;;18.00;96.30;;;;;;4977521;28;20186;-75
2022/07/08 15:10:12;;;;;;;8.90;1.40;;;18.30;96.30;;;;;;4995144;28;20264;-74
2022/07/08 15:12:37;;;;;;;7.50;1.80;;;19.00;96.30;;;;;;4995058;28;20205;-75
2022/07/08 15:15:03;;;;;;;7.57;1.87;;;19.60;96.30;;;;;;4994970;28;20185;-75
2022/07/08 15:17:29;;;;;;;7.70;1.33;;;19.50;96.30;;;;;;4994750;28;20543;-76
2022/07/08 15:19:54;;;;;;;3.40;1.20;;;18.80;96.30;;;;;;4977440;28;20463;-75
2022/07/08 15:22:20;;;;;;;1.60;1.00;;;18.80;96.30;;;;;;4994849;28;20217;-74
2022/07/08 15:24:45;;;;;;;6.70;1.70;;;19.10;96.30;;;;;;4977463;28;20205;-74
2022/07/08 15:27:11;;;;;;;9.03;1.97;;;19.40;96.30;;;;;;4994496;28;20166;-75
2022/07/08 15:29:38;;;;;;;3.47;1.20;;;19.70;96.30;;;;;;4976883;28;20543;-75
2022/07/08 15:32:04;;;;;;;5.20;1.60;;;20.00;96.30;;;;;;4977196;28;20684;-74
2022/07/08 15:34:29;;;;;;;10.00;1.53;;;19.60;96.30;;;;;;4977381;28;20424;-75
2022/07/08 15:36:55;;;;;;;9.50;2.03;;;19.50;96.30;;;;;;4977113;28;20480;-75
2022/07/08 15:39:20;;;;;;;4.20;1.10;;;19.40;96.30;;;;;;4994189;28;20259;-75
2022/07/08 15:41:46;;;;;;;10.60;1.50;;;19.20;96.30;;;;;;4994387;28;20275;-75
2022/07/08 15:44:11;;;;;;;4.27;1.70;;;18.90;96.30;;;;;;4994575;28;20184;-74
2022/07/08 15:46:37;;;;;;;6.60;1.40;;;19.10;96.30;;;;;;4994240;28;20252;-78
2022/07/08 15:49:03;;;;;;;3.60;1.20;;;19.10;96.30;;;;;;4994164;28;20184;-77
2022/07/08 15:51:29;;;;;;;2.63;1.40;;;19.20;96.30;;;;;;4994335;28;20200;-78
2022/07/08 15:53:54;;;;;;;5.87;1.63;;;19.30;96.30;;;;;;4994146;28;20433;-78
2022/07/08 15:56:21;;;;;;;6.50;1.57;;;19.50;96.30;;;;;;4994286;28;20239;-74
2022/07/08 15:58:48;;;;;;;9.50;1.80;;;19.50;96.30;;;;;;4976489;28;20214;-75
2022/07/08 16:01:14;;;;;;;6.17;1.93;;;19.00;96.30;;;;;;4994114;28;20432;-75
2022/07/08 16:03:39;;;;;;;6.67;1.87;;;18.80;96.30;;;;;;4976655;28;20413;-75
2022/07/08 16:06:06;;;;;;;5.10;1.47;;;18.80;96.30;;;;;;4994192;28;20677;-74
2022/07/08 16:08:31;;;;;;;4.70;1.93;;;18.60;96.30;;;;;;4976283;28;20436;-75
2022/07/08 16:10:57;;;;;;;5.17;1.57;;;18.40;96.30;;;;;;4994005;28;20214;-75
2022/07/08 16:13:22;;;;;;;6.77;1.20;;;18.30;96.30;;;;;;4994031;28;20209;-74
2022/07/08 16:15:48;;;;;;;7.33;1.40;;;18.20;96.30;;;;;;4994208;28;20189;-75
2022/07/08 16:18:13;;;;;;;5.30;1.50;;;18.10;96.30;;;;;;4976331;28;20206;-75
2022/07/08 16:20:39;;;;;;;4.27;1.73;;;18.00;96.30;;;;;;4993698;28;20173;-74
2022/07/08 16:23:08;;;;;;;8.93;2.13;;;17.80;96.30;;;;;;4976432;28;20177;-74
2022/07/08 16:25:35;;;;;;;6.00;1.37;;;17.70;96.30;;;;;;4993600;28;20170;-74
2022/07/08 16:28:02;;;;;;;4.73;1.27;;;17.60;96.30;;;;;;4976190;28;20428;-74
2022/07/08 16:30:28;;;;;;;6.80;1.63;;;17.40;96.30;;;;;;4993718;28;20432;-75
2022/07/08 16:32:53;;;;;;;3.97;1.40;;;17.20;96.30;;;;;;4993893;28;20417;-74
2022/07/08 16:35:19;;;;;;;4.93;1.40;;;17.10;96.30;;;;;;4993662;28;20194;-74
2022/07/08 16:37:44;;;;;;;4.07;1.20;;;17.00;96.30;;;;;;4993447;28;20561;-74
2022/07/08 16:40:10;;;;;;;3.77;1.37;;;17.00;96.30;;;;;;4976121;28;20266;-75
2022/07/08 16:42:36;;;;;;;3.13;1.10;;;17.00;96.30;;;;;;4993230;28;20209;-76
2022/07/08 16:45:01;;;;;;;3.00;1.43;;;17.00;96.30;;;;;;4994328;28;20532;-74
2022/07/08 16:47:27;;;;;;;9.40;1.50;;;17.00;96.30;;;;;;4994035;28;20173;-74
2022/07/08 16:49:52;;;;;;;3.47;1.33;;;17.00;96.30;;;;;;4993443;28;20712;-76
2022/07/08 16:52:18;;;;;;;4.97;1.47;;;16.80;96.30;;;;;;4993130;28;20209;-74
2022/07/08 16:54:43;;;;;;;8.97;1.60;;;16.80;96.30;;;;;;4993525;28;20249;-74
2022/07/08 16:57:09;;;;;;;5.23;1.23;;;16.80;96.30;;;;;;4975910;28;20185;-75
2022/07/08 16:59:35;;;;;;;5.10;1.27;;;16.70;96.30;;;;;;4993039;28;20649;-74
2022/07/08 17:02:01;;;;;;;4.30;1.57;;;16.70;96.30;;;;;;4992968;28;20189;-77
2022/07/08 17:04:26;;;;;;;7.70;1.60;;;16.70;96.30;;;;;;4993416;28;20931;-74